Time;durP1;ratioP1;P1;durP2;ratioP2;P2;SDS_P1;SDS_P2;PMS_P1;PMS_P2;Temp;Humidity;BMP_temperature;BMP_pressure;BME280_temperature;BME280_humidity;BME280_pressure;Samples;Min_cycle;Max_cycle;Signal;HPM_P1;HPM_P2
2023/05/12 00:01:14;;;;;;;23.55;12.98;;;11.50;99.90;;;;;;5023101;28;20055;-76
2023/05/12 00:03:40;;;;;;;25.33;14.23;;;11.40;99.90;;;;;;5052466;28;20051;-76
2023/05/12 00:06:06;;;;;;;26.13;14.13;;;11.40;99.90;;;;;;5055791;28;20040;-76
2023/05/12 00:08:32;;;;;;;34.72;16.05;;;11.50;99.90;;;;;;5056550;28;20518;-76
2023/05/12 00:10:58;;;;;;;37.67;16.27;;;11.50;99.90;;;;;;5055145;28;20036;-76
2023/05/12 00:13:24;;;;;;;30.88;16.83;;;11.40;99.90;;;;;;5043292;28;20118;-76
2023/05/12 00:15:50;;;;;;;37.05;19.20;;;11.50;99.90;;;;;;5037169;28;20051;-76
2023/05/12 00:18:16;;;;;;;37.83;19.63;;;11.50;99.90;;;;;;5051112;28;20044;-76
2023/05/12 00:20:41;;;;;;;39.85;19.30;;;11.50;99.90;;;;;;5043621;28;20040;-76
2023/05/12 00:23:07;;;;;;;34.35;19.02;;;11.50;99.90;;;;;;5035135;28;20471;-75
2023/05/12 00:25:33;;;;;;;35.17;18.23;;;11.50;99.90;;;;;;5045891;28;20041;-76
2023/05/12 00:27:59;;;;;;;35.17;18.17;;;11.50;99.90;;;;;;5046907;28;20044;-76
2023/05/12 00:30:25;;;;;;;37.70;16.88;;;11.50;99.90;;;;;;5050905;28;20044;-76
2023/05/12 00:32:50;;;;;;;32.45;16.45;;;11.50;99.90;;;;;;5056936;28;20044;-76
2023/05/12 00:35:16;;;;;;;31.92;16.40;;;11.50;99.90;;;;;;5047248;28;20516;-76
2023/05/12 00:37:43;;;;;;;30.10;15.63;;;11.50;99.90;;;;;;5054399;28;20040;-76
2023/05/12 00:40:09;;;;;;;25.70;15.38;;;11.60;99.90;;;;;;5055356;28;20056;-76
2023/05/12 00:42:35;;;;;;;34.78;16.77;;;11.60;99.90;;;;;;5056514;28;20486;-76
2023/05/12 00:45:03;;;;;;;29.38;16.15;;;11.60;99.90;;;;;;5073468;28;20104;-76
2023/05/12 00:47:29;;;;;;;32.28;16.48;;;11.60;99.90;;;;;;5061639;28;20051;-76
2023/05/12 00:49:55;;;;;;;28.70;16.98;;;11.60;99.90;;;;;;5052921;28;20052;-76
2023/05/12 00:52:21;;;;;;;34.45;17.60;;;11.60;99.90;;;;;;5049364;28;20510;-76
2023/05/12 00:54:48;;;;;;;34.08;17.98;;;11.60;99.90;;;;;;5052218;28;20036;-76
2023/05/12 00:57:14;;;;;;;28.45;16.30;;;11.40;99.90;;;;;;5055818;28;20401;-76
2023/05/12 00:59:40;;;;;;;32.38;17.67;;;11.60;99.90;;;;;;5035729;28;20044;-75
2023/05/12 01:02:06;;;;;;;32.70;17.65;;;11.70;99.90;;;;;;5051430;28;20079;-76
2023/05/12 01:04:33;;;;;;;31.80;16.63;;;11.70;99.90;;;;;;5056786;28;20170;-75
2023/05/12 01:07:25;;;;;;;31.30;17.08;;;11.60;99.90;;;;;;5048124;28;20059;-76
2023/05/12 01:09:57;;;;;;;34.35;16.75;;;11.70;99.90;;;;;;5043096;28;20311;-76
2023/05/12 01:12:24;;;;;;;32.03;17.23;;;11.70;99.90;;;;;;5064048;28;20105;-76
2023/05/12 01:14:52;;;;;;;29.33;16.27;;;11.80;99.90;;;;;;5056059;28;20447;-76
2023/05/12 01:17:30;;;;;;;33.50;16.80;;;11.70;99.90;;;;;;5052619;28;20119;-76
2023/05/12 01:19:59;;;;;;;29.05;16.50;;;11.80;99.90;;;;;;5054788;28;20109;-76
2023/05/12 01:22:27;;;;;;;35.47;16.58;;;11.80;99.90;;;;;;5052960;28;20646;-75
2023/05/12 01:24:56;;;;;;;34.33;17.27;;;11.80;99.90;;;;;;5035742;28;20119;-76
2023/05/12 01:27:27;;;;;;;33.67;17.02;;;11.80;99.90;;;;;;5038125;28;20120;-76
2023/05/12 01:29:56;;;;;;;31.50;16.95;;;11.90;99.90;;;;;;5038580;28;20060;-76
2023/05/12 01:32:22;;;;;;;38.47;18.90;;;11.80;99.90;;;;;;5035512;28;20741;-76
2023/05/12 01:34:49;;;;;;;33.40;17.80;;;11.90;99.90;;;;;;5048178;28;20406;-76
2023/05/12 01:37:15;;;;;;;35.97;18.77;;;11.90;99.90;;;;;;5057734;28;20493;-76
2023/05/12 01:39:41;;;;;;;36.90;19.73;;;11.90;99.90;;;;;;5059988;28;20101;-75
2023/05/12 01:42:07;;;;;;;37.10;19.42;;;11.90;99.90;;;;;;5048074;28;20081;-75
2023/05/12 01:44:32;;;;;;;39.42;19.90;;;11.90;99.90;;;;;;5054335;28;20044;-76
2023/05/12 01:46:58;;;;;;;34.35;19.00;;;11.90;99.90;;;;;;5049311;28;20591;-76
2023/05/12 01:49:24;;;;;;;36.03;19.05;;;11.90;99.90;;;;;;5067580;28;20135;-75
2023/05/12 01:51:50;;;;;;;32.50;18.13;;;11.90;99.90;;;;;;5045074;28;20044;-76
2023/05/12 01:54:15;;;;;;;37.95;19.23;;;11.90;99.90;;;;;;5058341;28;20131;-76
2023/05/12 01:56:41;;;;;;;39.47;18.77;;;11.90;99.90;;;;;;5036523;28;20110;-76
2023/05/12 01:59:07;;;;;;;37.78;19.65;;;10.60;99.90;;;;;;5054130;28;20046;-76
2023/05/12 02:01:33;;;;;;;38.25;18.95;;;11.90;99.90;;;;;;5050734;28;20070;-76
2023/05/12 02:03:59;;;;;;;37.88;19.17;;;11.90;99.90;;;;;;5052871;28;20086;-75
2023/05/12 02:06:26;;;;;;;33.30;17.55;;;11.90;99.90;;;;;;5032357;28;20043;-76
2023/05/12 02:08:51;;;;;;;34.88;18.65;;;11.90;99.90;;;;;;5050919;28;20052;-76
2023/05/12 02:11:17;;;;;;;30.73;17.25;;;11.90;99.90;;;;;;5048461;28;20379;-76
2023/05/12 02:13:43;;;;;;;36.83;17.98;;;11.90;99.90;;;;;;5046317;28;20490;-75
2023/05/12 02:16:09;;;;;;;34.72;17.58;;;11.00;99.90;;;;;;5032816;28;20055;-76
2023/05/12 02:18:35;;;;;;;48.88;18.92;;;11.90;99.90;;;;;;5047936;28;20531;-75
2023/05/12 02:21:01;;;;;;;33.45;17.15;;;11.90;99.90;;;;;;5050028;28;20578;-75
2023/05/12 02:23:27;;;;;;;32.83;17.30;;;11.90;99.90;;;;;;5056693;28;20036;-76
2023/05/12 02:25:52;;;;;;;36.92;17.40;;;11.90;99.90;;;;;;5052802;28;20322;-75
2023/05/12 02:28:18;;;;;;;35.05;17.52;;;11.90;99.90;;;;;;5046336;28;20114;-75
2023/05/12 02:30:49;;;;;;;37.10;17.40;;;11.90;99.90;;;;;;5052035;28;20386;-75
2023/05/12 02:33:16;;;;;;;32.65;17.58;;;11.80;99.90;;;;;;5054645;28;20101;-75
2023/05/12 02:35:42;;;;;;;35.58;18.48;;;11.80;99.90;;;;;;5053515;28;20455;-75
2023/05/12 02:38:08;;;;;;;35.72;17.42;;;11.90;99.90;;;;;;5063155;28;20123;-75
2023/05/12 02:40:33;;;;;;;29.83;17.25;;;11.80;99.90;;;;;;5051985;28;20474;-75
2023/05/12 02:43:00;;;;;;;36.80;17.95;;;11.80;99.90;;;;;;5062457;28;20494;-75
2023/05/12 02:45:25;;;;;;;35.08;17.60;;;11.80;99.90;;;;;;5051803;28;20032;-75
2023/05/12 02:47:51;;;;;;;37.75;17.92;;;11.80;99.90;;;;;;5031926;28;20555;-75
2023/05/12 02:50:17;;;;;;;36.53;16.85;;;11.80;99.90;;;;;;5071137;28;20123;-75
2023/05/12 02:52:43;;;;;;;34.95;17.27;;;11.70;99.90;;;;;;5039745;28;20042;-75
2023/05/12 02:55:08;;;;;;;35.90;17.42;;;11.70;99.90;;;;;;5057779;28;20561;-75
2023/05/12 02:57:34;;;;;;;35.00;17.85;;;11.70;99.90;;;;;;5050084;28;20562;-75
2023/05/12 03:00:01;;;;;;;37.35;18.20;;;11.70;99.90;;;;;;5038998;28;20119;-75
2023/05/12 03:02:27;;;;;;;34.75;17.13;;;11.70;99.90;;;;;;5049341;28;20039;-75
2023/05/12 03:04:52;;;;;;;33.00;17.95;;;11.70;99.90;;;;;;5051236;28;20041;-76
2023/05/12 03:07:18;;;;;;;33.13;17.63;;;11.60;99.90;;;;;;5049699;28;20048;-75
2023/05/12 03:09:44;;;;;;;35.28;17.77;;;11.70;99.90;;;;;;5052825;28;20044;-75
2023/05/12 03:12:09;;;;;;;34.58;17.35;;;11.60;99.90;;;;;;5045830;28;20150;-75
2023/05/12 03:14:35;;;;;;;35.75;18.10;;;11.60;99.90;;;;;;5047064;28;20111;-75
2023/05/12 03:17:01;;;;;;;32.88;17.13;;;11.60;99.90;;;;;;5053877;28;20044;-76
2023/05/12 03:19:27;;;;;;;31.70;16.88;;;11.70;99.90;;;;;;5049639;28;20042;-76
2023/05/12 03:21:53;;;;;;;31.35;15.80;;;11.60;99.90;;;;;;5057083;28;20052;-76
2023/05/12 03:24:19;;;;;;;38.88;17.48;;;11.60;99.90;;;;;;5059760;28;20701;-76
2023/05/12 03:26:44;;;;;;;36.10;17.45;;;11.60;99.90;;;;;;5068668;28;20266;-76
2023/05/12 03:29:10;;;;;;;28.98;16.70;;;11.60;99.90;;;;;;5063057;28;20041;-76
2023/05/12 03:31:36;;;;;;;31.55;17.58;;;11.70;99.90;;;;;;5036147;28;20047;-75
2023/05/12 03:34:01;;;;;;;31.05;16.75;;;11.60;99.90;;;;;;5037477;28;20034;-75
2023/05/12 03:36:27;;;;;;;34.67;18.13;;;11.60;99.90;;;;;;5055516;28;20049;-75
2023/05/12 03:38:53;;;;;;;35.72;17.23;;;11.60;99.90;;;;;;5054024;28;20505;-75
2023/05/12 03:41:19;;;;;;;32.05;17.42;;;11.60;99.90;;;;;;5027895;28;20058;-75
2023/05/12 03:43:44;;;;;;;32.30;17.55;;;11.60;99.90;;;;;;5057493;28;20524;-75
2023/05/12 03:46:10;;;;;;;31.73;17.23;;;11.60;99.90;;;;;;5042240;28;20064;-75
2023/05/12 03:48:36;;;;;;;34.72;17.65;;;11.60;99.90;;;;;;5040650;28;20359;-75
2023/05/12 03:51:02;;;;;;;33.15;17.23;;;11.60;99.90;;;;;;5055861;28;20050;-75
2023/05/12 03:53:28;;;;;;;36.72;17.42;;;11.60;99.90;;;;;;5032189;28;20090;-76
2023/05/12 03:55:54;;;;;;;37.20;16.25;;;11.60;99.90;;;;;;5060745;28;20040;-76
2023/05/12 03:58:21;;;;;;;33.25;17.70;;;11.60;99.90;;;;;;5054072;28;20041;-76
2023/05/12 04:00:49;;;;;;;30.35;16.33;;;11.60;99.90;;;;;;5056975;28;20032;-76
2023/05/12 04:03:15;;;;;;;38.03;16.88;;;11.60;99.90;;;;;;5028528;28;20043;-76
2023/05/12 04:05:41;;;;;;;32.50;17.25;;;11.60;99.90;;;;;;5043468;28;20048;-76
2023/05/12 04:08:08;;;;;;;32.53;16.63;;;11.70;99.90;;;;;;5049973;28;20049;-75
2023/05/12 04:10:40;;;;;;;30.30;16.30;;;11.70;99.90;;;;;;5054001;28;20036;-75
2023/05/12 04:13:07;;;;;;;;;;;11.70;99.90;;;;;;5054764;28;20028;-75
2023/05/12 04:15:36;;;;;;;32.92;17.02;;;11.70;99.90;;;;;;5048843;28;19926;-75
2023/05/12 04:18:02;;;;;;;38.95;17.67;;;11.70;99.90;;;;;;5039130;28;20048;-75
2023/05/12 04:20:28;;;;;;;35.83;18.23;;;11.70;99.90;;;;;;5037834;28;20032;-75
2023/05/12 04:22:54;;;;;;;33.28;17.38;;;11.70;99.90;;;;;;5048852;28;21073;-75
2023/05/12 04:25:20;;;;;;;32.53;17.52;;;11.70;99.90;;;;;;5045695;28;20072;-75
2023/05/12 04:27:45;;;;;;;35.22;17.98;;;11.80;99.90;;;;;;5051876;28;20074;-75
2023/05/12 04:30:11;;;;;;;34.47;18.55;;;11.80;99.90;;;;;;5033216;28;20072;-75
2023/05/12 04:32:37;;;;;;;34.53;17.83;;;11.80;99.90;;;;;;5044350;28;20038;-75
2023/05/12 04:35:03;;;;;;;33.15;17.00;;;11.80;99.90;;;;;;5046248;28;20663;-75
2023/05/12 04:37:29;;;;;;;41.60;18.65;;;11.80;99.90;;;;;;5062440;28;20038;-75
2023/05/12 04:39:54;;;;;;;40.22;19.63;;;11.90;99.90;;;;;;5047100;28;20309;-75
2023/05/12 04:42:20;;;;;;;32.47;18.48;;;11.90;99.90;;;;;;5045070;28;20041;-75
2023/05/12 04:44:46;;;;;;;38.47;19.60;;;11.90;99.90;;;;;;5041665;28;20036;-75
2023/05/12 04:47:12;;;;;;;34.92;18.65;;;12.00;99.90;;;;;;5044302;28;20036;-75
2023/05/12 04:49:37;;;;;;;36.45;18.63;;;12.00;99.90;;;;;;5042795;28;20153;-75
2023/05/12 04:52:04;;;;;;;43.00;19.35;;;12.00;99.90;;;;;;5054914;28;20508;-75
2023/05/12 04:54:31;;;;;;;43.15;20.95;;;12.00;99.90;;;;;;5031601;28;20051;-75
2023/05/12 04:56:57;;;;;;;42.38;21.33;;;12.00;99.90;;;;;;5047621;28;20064;-75
2023/05/12 04:59:23;;;;;;;35.22;20.50;;;12.00;99.90;;;;;;5041772;28;20080;-75
2023/05/12 05:01:49;;;;;;;40.20;19.35;;;12.00;99.90;;;;;;5032807;28;20442;-75
2023/05/12 05:04:15;;;;;;;35.80;18.90;;;12.10;99.90;;;;;;5047326;28;20043;-75
2023/05/12 05:06:41;;;;;;;37.10;19.98;;;12.10;99.90;;;;;;5050567;28;20060;-75
2023/05/12 05:09:07;;;;;;;42.38;21.48;;;12.10;99.90;;;;;;5057157;28;20456;-75
2023/05/12 05:11:33;;;;;;;42.47;20.40;;;12.10;99.90;;;;;;5055514;28;20511;-75
2023/05/12 05:13:59;;;;;;;36.25;19.88;;;12.10;99.90;;;;;;5053173;28;20051;-75
2023/05/12 05:16:24;;;;;;;34.53;19.00;;;12.10;99.90;;;;;;5066850;28;20029;-75
2023/05/12 05:18:50;;;;;;;35.83;19.25;;;12.10;99.90;;;;;;5069477;28;20045;-75
2023/05/12 05:21:16;;;;;;;35.97;20.08;;;12.20;99.90;;;;;;5038033;28;20116;-75
2023/05/12 05:23:42;;;;;;;41.70;19.70;;;12.10;99.90;;;;;;5049482;28;20037;-75
2023/05/12 05:26:08;;;;;;;37.50;19.58;;;12.10;99.90;;;;;;5024066;28;20494;-75
2023/05/12 05:28:34;;;;;;;34.88;19.05;;;12.20;99.90;;;;;;5052172;28;20037;-75
2023/05/12 05:31:00;;;;;;;42.85;20.13;;;12.20;99.90;;;;;;5072984;28;20049;-75
2023/05/12 05:33:26;;;;;;;34.13;18.63;;;12.20;99.90;;;;;;5051459;28;20036;-75
2023/05/12 05:35:52;;;;;;;39.33;21.52;;;12.20;99.90;;;;;;5043232;28;20187;-75
2023/05/12 05:38:17;;;;;;;37.83;18.70;;;12.20;99.90;;;;;;5048986;28;20029;-75
2023/05/12 05:40:43;;;;;;;37.60;20.42;;;12.30;99.90;;;;;;5037778;28;20041;-75
2023/05/12 05:43:09;;;;;;;33.85;19.90;;;12.30;99.90;;;;;;5049746;28;20088;-75
2023/05/12 05:45:35;;;;;;;35.17;20.08;;;12.30;99.90;;;;;;5060014;28;20124;-75
2023/05/12 05:48:01;;;;;;;35.72;21.13;;;12.30;99.90;;;;;;5046010;28;20513;-75
2023/05/12 05:50:27;;;;;;;32.40;19.45;;;12.30;99.90;;;;;;5044452;28;20053;-75
2023/05/12 05:52:55;;;;;;;35.25;20.15;;;12.40;99.90;;;;;;5045337;28;20040;-75
2023/05/12 05:55:21;;;;;;;35.80;20.60;;;12.40;99.90;;;;;;5043177;28;20044;-75
2023/05/12 05:57:47;;;;;;;33.13;19.90;;;12.50;99.90;;;;;;5062998;28;20093;-75
2023/05/12 06:00:13;;;;;;;37.97;20.45;;;12.50;99.90;;;;;;5057423;28;20304;-75
2023/05/12 06:02:40;;;;;;;40.20;20.35;;;12.50;99.90;;;;;;5051255;28;20131;-75
2023/05/12 06:05:06;;;;;;;35.05;20.48;;;12.50;99.90;;;;;;5053692;28;20097;-75
2023/05/12 06:07:32;;;;;;;37.75;20.98;;;12.60;99.90;;;;;;5051498;28;20123;-75
2023/05/12 06:09:58;;;;;;;35.90;19.88;;;12.60;99.90;;;;;;5040062;28;20055;-75
2023/05/12 06:12:24;;;;;;;39.35;22.35;;;12.70;99.90;;;;;;5043548;28;20039;-75
2023/05/12 06:14:50;;;;;;;36.97;20.80;;;12.70;99.90;;;;;;5053508;28;20116;-75
2023/05/12 06:17:16;;;;;;;36.75;20.65;;;12.80;99.90;;;;;;5052587;28;20085;-75
2023/05/12 06:19:46;;;;;;;41.05;21.25;;;12.80;99.90;;;;;;5043569;28;20060;-75
2023/05/12 06:22:13;;;;;;;38.45;20.73;;;12.90;99.90;;;;;;5041619;28;20575;-75
2023/05/12 06:24:39;;;;;;;39.03;21.52;;;12.90;99.90;;;;;;5056269;28;20048;-75
2023/05/12 06:27:06;;;;;;;45.70;22.48;;;13.00;99.90;;;;;;5058373;28;20041;-75
2023/05/12 06:29:31;;;;;;;37.65;21.90;;;13.10;99.90;;;;;;5035438;28;20101;-75
2023/05/12 06:31:57;;;;;;;42.70;22.92;;;13.20;99.90;;;;;;5074903;28;20032;-74
2023/05/12 06:34:23;;;;;;;38.28;23.27;;;13.20;99.90;;;;;;5051464;28;20129;-74
2023/05/12 06:36:48;;;;;;;41.50;23.08;;;13.20;99.90;;;;;;5076708;28;20672;-74
2023/05/12 06:39:14;;;;;;;41.88;24.35;;;13.30;99.90;;;;;;5058930;28;20033;-75
2023/05/12 06:41:40;;;;;;;42.13;25.63;;;13.40;99.90;;;;;;5041033;28;20046;-74
2023/05/12 06:44:06;;;;;;;44.85;26.98;;;13.40;99.90;;;;;;5053339;28;20036;-74
2023/05/12 06:46:32;;;;;;;47.45;29.38;;;13.50;99.90;;;;;;5055082;28;20040;-74
2023/05/12 06:48:59;;;;;;;48.20;29.58;;;13.50;99.90;;;;;;5045524;28;20678;-74
2023/05/12 06:51:25;;;;;;;47.28;29.75;;;13.60;99.90;;;;;;5053395;28;20049;-74
2023/05/12 06:53:51;;;;;;;50.67;30.23;;;13.60;99.90;;;;;;5048405;28;20552;-74
2023/05/12 06:56:16;;;;;;;46.85;30.05;;;13.70;99.90;;;;;;5050642;28;20048;-74
2023/05/12 06:58:42;;;;;;;48.17;29.42;;;13.70;99.90;;;;;;5055403;28;20037;-75
2023/05/12 07:01:08;;;;;;;53.65;32.20;;;13.80;99.90;;;;;;5045824;28;20054;-74
2023/05/12 07:03:34;;;;;;;46.58;30.65;;;13.80;99.90;;;;;;5088211;28;20037;-74
2023/05/12 07:06:00;;;;;;;50.28;32.15;;;13.90;99.90;;;;;;5061884;28;20042;-74
2023/05/12 07:08:26;;;;;;;54.08;32.97;;;13.90;99.90;;;;;;5051208;28;20029;-74
2023/05/12 07:10:52;;;;;;;62.45;37.33;;;14.00;99.90;;;;;;5069130;28;20045;-74
2023/05/12 07:13:17;;;;;;;53.75;35.65;;;14.10;99.90;;;;;;5052788;28;20415;-74
2023/05/12 07:15:44;;;;;;;55.30;35.33;;;14.20;99.90;;;;;;5053283;28;20032;-74
2023/05/12 07:18:10;;;;;;;52.85;35.28;;;14.30;99.90;;;;;;5053521;28;20137;-74
2023/05/12 07:20:37;;;;;;;56.75;36.03;;;14.30;99.90;;;;;;5040488;28;20115;-74
2023/05/12 07:23:03;;;;;;;54.58;38.50;;;14.40;99.90;;;;;;5067092;28;20045;-74
2023/05/12 07:25:29;;;;;;;57.75;36.13;;;14.50;99.90;;;;;;5052166;28;20210;-74
2023/05/12 07:27:54;;;;;;;49.85;34.05;;;14.60;99.90;;;;;;5056187;28;20251;-74
2023/05/12 07:30:21;;;;;;;50.63;35.05;;;14.70;99.90;;;;;;5032730;28;20124;-74
2023/05/12 07:32:47;;;;;;;50.70;34.50;;;14.90;99.90;;;;;;5050211;28;20132;-74
2023/05/12 07:35:12;;;;;;;46.63;33.65;;;14.90;99.90;;;;;;5070320;28;20062;-74
2023/05/12 07:37:38;;;;;;;48.10;34.25;;;15.00;99.90;;;;;;5046340;28;20361;-74
2023/05/12 07:40:04;;;;;;;47.33;32.60;;;15.10;99.90;;;;;;5050182;28;20040;-75
2023/05/12 07:42:30;;;;;;;45.13;31.98;;;15.10;99.90;;;;;;5055672;28;20534;-74
2023/05/12 07:44:56;;;;;;;46.78;33.28;;;15.20;99.90;;;;;;5054442;28;20044;-74
2023/05/12 07:47:22;;;;;;;47.72;33.65;;;15.20;99.90;;;;;;5062411;28;20191;-74
2023/05/12 07:49:47;;;;;;;44.63;33.05;;;15.20;99.90;;;;;;5049113;28;20047;-74
2023/05/12 07:52:13;;;;;;;50.15;33.22;;;15.30;99.90;;;;;;5043661;28;20135;-74
2023/05/12 07:54:39;;;;;;;48.40;33.05;;;15.30;99.90;;;;;;5055779;28;20050;-74
2023/05/12 07:57:05;;;;;;;44.33;31.75;;;15.40;99.90;;;;;;5049805;28;20072;-74
2023/05/12 07:59:30;;;;;;;45.42;33.47;;;15.40;99.90;;;;;;5047984;28;20040;-74
2023/05/12 08:01:57;;;;;;;47.90;33.95;;;15.40;99.90;;;;;;5041201;28;20045;-74
2023/05/12 08:04:23;;;;;;;43.30;32.53;;;15.40;99.90;;;;;;5031524;28;20041;-74
2023/05/12 08:06:49;;;;;;;44.85;34.28;;;15.40;99.90;;;;;;5044917;28;20475;-74
2023/05/12 08:09:14;;;;;;;48.75;35.22;;;15.40;99.90;;;;;;5051696;28;20036;-74
2023/05/12 08:11:40;;;;;;;46.22;33.50;;;15.40;99.90;;;;;;5040631;28;20124;-74
2023/05/12 08:14:06;;;;;;;47.33;36.42;;;15.50;99.90;;;;;;5053284;28;20433;-74
2023/05/12 08:16:32;;;;;;;43.85;33.25;;;15.50;99.90;;;;;;5069335;28;20037;-74
2023/05/12 08:18:58;;;;;;;45.78;32.72;;;15.60;99.90;;;;;;5067461;28;20548;-74
2023/05/12 08:21:24;;;;;;;44.00;32.65;;;15.70;99.90;;;;;;5060084;28;20036;-74
2023/05/12 08:23:49;;;;;;;41.40;31.23;;;15.80;99.90;;;;;;5064123;28;20143;-74
2023/05/12 08:26:15;;;;;;;41.35;32.60;;;15.80;99.90;;;;;;5045671;28;20040;-74
2023/05/12 08:28:41;;;;;;;43.45;32.83;;;15.80;99.90;;;;;;5065284;28;20355;-74
2023/05/12 08:31:06;;;;;;;42.20;31.35;;;15.80;99.90;;;;;;5054168;28;20029;-74
2023/05/12 08:33:35;;;;;;;40.78;31.00;;;15.90;99.90;;;;;;5010265;28;20033;-74
2023/05/12 08:36:01;;;;;;;41.05;30.75;;;16.00;99.90;;;;;;5050532;28;20496;-74
2023/05/12 08:38:27;;;;;;;41.30;31.05;;;16.20;99.90;;;;;;5054198;28;20084;-74
2023/05/12 08:41:06;;;;;;;38.25;29.45;;;16.30;99.90;;;;;;5042922;28;20482;-74
2023/05/12 08:43:45;;;;;;;37.65;28.80;;;16.40;99.90;;;;;;5055726;28;20055;-74
2023/05/12 08:46:11;;;;;;;37.13;28.70;;;16.60;99.90;;;;;;5048704;28;20103;-74
2023/05/12 08:48:39;;;;;;;33.25;27.20;;;16.70;99.90;;;;;;5052484;28;20123;-74
2023/05/12 08:51:10;;;;;;;34.28;26.50;;;16.70;99.90;;;;;;5051322;28;20060;-74
2023/05/12 08:53:38;;;;;;;34.42;27.63;;;16.80;99.90;;;;;;5028295;28;20140;-74
2023/05/12 08:56:06;;;;;;;33.65;26.77;;;16.90;99.90;;;;;;5053456;28;20032;-74
2023/05/12 08:58:33;;;;;;;33.78;27.27;;;16.90;99.90;;;;;;5069171;28;20466;-74
2023/05/12 09:01:00;;;;;;;30.73;25.20;;;17.00;99.90;;;;;;5049623;28;20299;-74
2023/05/12 09:03:27;;;;;;;35.00;27.08;;;17.00;99.90;;;;;;5054142;28;20498;-74
2023/05/12 09:05:56;;;;;;;33.38;25.85;;;17.10;99.90;;;;;;5048548;28;20193;-74
2023/05/12 09:08:24;;;;;;;33.75;26.80;;;17.20;99.90;;;;;;5051036;28;20041;-74
2023/05/12 09:10:50;;;;;;;33.22;25.73;;;17.30;99.90;;;;;;5046154;28;20156;-73
2023/05/12 09:13:18;;;;;;;31.65;25.52;;;17.40;99.90;;;;;;5048455;28;20024;-73
2023/05/12 09:15:47;;;;;;;32.53;26.33;;;17.50;99.90;;;;;;5051341;28;20045;-74
2023/05/12 09:18:13;;;;;;;33.55;24.45;;;17.50;99.90;;;;;;5066647;28;20146;-74
2023/05/12 09:20:38;;;;;;;33.22;25.95;;;17.60;99.90;;;;;;5065657;28;20044;-73
2023/05/12 09:23:15;;;;;;;29.80;24.50;;;17.60;99.90;;;;;;5054897;28;20045;-74
2023/05/12 09:25:41;;;;;;;31.98;24.63;;;17.70;99.90;;;;;;5043097;28;20059;-74
2023/05/12 09:28:07;;;;;;;27.30;21.98;;;17.80;99.90;;;;;;5051191;28;20028;-74
2023/05/12 09:30:36;;;;;;;26.17;19.67;;;18.00;99.90;;;;;;5051527;28;20095;-74
2023/05/12 09:33:11;;;;;;;25.02;19.73;;;18.10;99.90;;;;;;5051748;28;20146;-74
2023/05/12 09:35:45;;;;;;;30.65;20.88;;;18.20;99.90;;;;;;5066439;28;20420;-74
2023/05/12 09:38:13;;;;;;;25.58;19.13;;;18.30;99.90;;;;;;5051032;28;20033;-73
2023/05/12 09:40:39;;;;;;;22.00;18.02;;;18.50;99.90;;;;;;5048656;28;20414;-73
2023/05/12 09:43:06;;;;;;;20.10;15.65;;;18.50;99.90;;;;;;5039656;28;20036;-74
2023/05/12 09:45:36;;;;;;;18.98;15.35;;;18.70;99.90;;;;;;5052067;28;20044;-73
2023/05/12 09:48:09;;;;;;;20.20;14.63;;;18.70;99.90;;;;;;5036264;28;20048;-73
2023/05/12 09:50:41;;;;;;;19.63;15.35;;;18.70;99.90;;;;;;5051646;28;20088;-74
2023/05/12 09:53:07;;;;;;;19.17;15.02;;;18.70;99.90;;;;;;5047088;28;20127;-73
2023/05/12 09:55:33;;;;;;;20.58;15.60;;;18.70;99.90;;;;;;5066529;28;20140;-74
2023/05/12 09:58:01;;;;;;;20.02;14.70;;;18.90;99.90;;;;;;5048061;28;20123;-74
2023/05/12 10:00:26;;;;;;;17.58;13.27;;;19.10;99.90;;;;;;5026952;28;20070;-74
2023/05/12 10:02:52;;;;;;;18.48;13.98;;;19.00;99.90;;;;;;5050266;28;20052;-74
2023/05/12 10:05:20;;;;;;;19.95;15.40;;;19.10;99.90;;;;;;5048429;28;20119;-74
2023/05/12 10:07:53;;;;;;;20.85;15.38;;;19.20;99.90;;;;;;5051633;28;20236;-74
2023/05/12 10:10:25;;;;;;;20.90;15.70;;;19.30;99.90;;;;;;5055206;28;20062;-74
2023/05/12 10:12:51;;;;;;;22.63;17.52;;;19.50;99.90;;;;;;5049330;28;20044;-74
2023/05/12 10:15:19;;;;;;;21.15;15.90;;;19.60;99.90;;;;;;5029191;28;20142;-73
2023/05/12 10:17:45;;;;;;;21.10;15.98;;;19.70;99.90;;;;;;5059230;28;20041;-73
2023/05/12 10:20:12;;;;;;;19.88;15.30;;;19.70;99.90;;;;;;5046473;28;20041;-73
2023/05/12 10:22:39;;;;;;;19.60;16.48;;;19.80;99.90;;;;;;5043795;28;20048;-73
2023/05/12 10:25:07;;;;;;;21.27;17.25;;;19.80;99.90;;;;;;5050823;28;20490;-73
2023/05/12 10:27:34;;;;;;;19.60;16.30;;;19.80;99.90;;;;;;5056163;28;20037;-73
2023/05/12 10:30:01;;;;;;;18.75;15.32;;;19.80;99.90;;;;;;5064264;28;20041;-73
2023/05/12 10:32:27;;;;;;;17.83;14.07;;;20.60;99.90;;;;;;5039172;28;20586;-73
2023/05/12 10:34:53;;;;;;;17.15;12.40;;;19.90;99.90;;;;;;5041997;28;20112;-73
2023/05/12 10:37:21;;;;;;;16.70;12.82;;;19.90;99.90;;;;;;5057464;28;20035;-73
2023/05/12 10:39:50;;;;;;;20.75;16.25;;;20.10;99.90;;;;;;5050027;28;20041;-73
2023/05/12 10:42:24;;;;;;;19.50;15.30;;;20.10;99.90;;;;;;5051947;28;20478;-73
2023/05/12 10:44:55;;;;;;;17.77;13.98;;;20.10;99.90;;;;;;5051696;28;20113;-74
2023/05/12 10:47:28;;;;;;;18.17;13.13;;;20.20;99.90;;;;;;5047653;28;20083;-75
2023/05/12 10:49:58;;;;;;;19.90;13.70;;;20.20;99.90;;;;;;5057202;28;20459;-74
2023/05/12 10:52:24;;;;;;;17.70;13.57;;;20.30;99.90;;;;;;5067503;28;20071;-74
2023/05/12 10:54:49;;;;;;;20.40;15.63;;;20.30;99.90;;;;;;5038297;28;20406;-74
2023/05/12 10:57:19;;;;;;;19.50;15.25;;;20.30;99.90;;;;;;5055280;28;20115;-74
2023/05/12 11:00:12;;;;;;;17.23;12.30;;;20.40;99.90;;;;;;5051152;28;20060;-75
2023/05/12 11:02:47;;;;;;;;;;;20.40;99.90;;;;;;5048329;28;20164;-74
2023/05/12 11:05:13;;;;;;;15.68;11.38;;;20.50;99.90;;;;;;5049066;28;20890;-74
2023/05/12 11:07:38;;;;;;;13.60;10.23;;;20.60;99.90;;;;;;5027744;28;20048;-74
2023/05/12 11:10:05;;;;;;;14.18;10.50;;;20.60;99.90;;;;;;5036618;28;20378;-74
2023/05/12 11:12:34;;;;;;;16.20;11.90;;;20.60;99.90;;;;;;5038144;28;20044;-74
2023/05/12 11:15:01;;;;;;;15.60;10.98;;;20.60;99.90;;;;;;5033037;28;20060;-75
2023/05/12 11:17:27;;;;;;;14.00;10.23;;;20.60;99.90;;;;;;5049582;28;20059;-74
2023/05/12 11:19:54;;;;;;;15.20;10.35;;;20.50;99.90;;;;;;5048305;28;20450;-75
2023/05/12 11:22:21;;;;;;;12.90;9.10;;;20.40;99.90;;;;;;5055410;28;20044;-74
2023/05/12 11:24:48;;;;;;;12.73;9.18;;;20.40;99.90;;;;;;5047939;28;20036;-75
2023/05/12 11:27:19;;;;;;;13.43;9.30;;;20.40;99.90;;;;;;5065594;28;20049;-75
2023/05/12 11:29:58;;;;;;;14.45;9.88;;;20.50;99.90;;;;;;5052842;28;20466;-75
2023/05/12 11:32:24;;;;;;;14.10;9.75;;;20.60;99.90;;;;;;5049993;28;20116;-74
2023/05/12 11:34:50;;;;;;;14.23;9.15;;;20.70;99.90;;;;;;5046594;28;20128;-74
2023/05/12 11:37:19;;;;;;;11.10;7.00;;;21.00;99.90;;;;;;5066168;28;20512;-74
2023/05/12 11:39:45;;;;;;;13.35;8.10;;;21.20;99.90;;;;;;5049413;28;20053;-74
2023/05/12 11:42:11;;;;;;;12.23;7.20;;;21.30;99.90;;;;;;5024216;28;20045;-74
2023/05/12 11:44:48;;;;;;;12.43;6.97;;;21.50;99.90;;;;;;5048514;28;20553;-74
2023/05/12 11:47:15;;;;;;;14.25;6.80;;;21.60;99.90;;;;;;5051747;28;20153;-74
2023/05/12 11:49:54;;;;;;;12.15;7.22;;;21.70;99.90;;;;;;5051324;28;20253;-74
2023/05/12 11:52:22;;;;;;;12.57;7.53;;;21.80;99.90;;;;;;5056079;28;20107;-74
2023/05/12 11:55:04;;;;;;;12.27;7.43;;;21.80;99.90;;;;;;5061443;28;20029;-74
2023/05/12 11:57:34;;;;;;;10.77;5.60;;;21.90;99.90;;;;;;5055388;28;20063;-74
2023/05/12 12:00:10;;;;;;;8.63;4.10;;;21.80;99.90;;;;;;5060670;28;20040;-74
2023/05/12 12:02:38;;;;;;;9.52;4.13;;;21.90;99.90;;;;;;5034818;28;20534;-74
2023/05/12 12:05:14;;;;;;;9.05;4.07;;;22.10;99.90;;;;;;5050523;28;20056;-74
2023/05/12 12:07:41;;;;;;;9.63;4.20;;;22.00;99.90;;;;;;5044129;28;20036;-74
2023/05/12 12:10:14;;;;;;;9.18;3.67;;;22.10;99.90;;;;;;5048942;28;20036;-74
2023/05/12 12:12:41;;;;;;;10.40;3.88;;;22.10;99.90;;;;;;5046513;28;20040;-74
2023/05/12 12:15:08;;;;;;;8.68;3.78;;;22.20;99.90;;;;;;5044494;28;20041;-74
2023/05/12 12:17:33;;;;;;;11.27;4.32;;;22.20;99.90;;;;;;5046911;28;20029;-74
2023/05/12 12:19:59;;;;;;;11.70;5.18;;;22.20;99.90;;;;;;5022606;28;20456;-74
2023/05/12 12:22:25;;;;;;;9.65;4.60;;;22.10;99.90;;;;;;5052492;28;20040;-74
2023/05/12 12:24:51;;;;;;;9.30;5.25;;;22.10;99.90;;;;;;5059712;28;20052;-74
2023/05/12 12:27:17;;;;;;;10.10;5.63;;;22.20;99.90;;;;;;5037134;28;20374;-74